createdAt,value
2022-10-09T00:00:59.791Z,1017.47
2022-10-09T00:04:07.272Z,1017.55
2022-10-09T00:07:15.351Z,1017.51
2022-10-09T00:10:22.652Z,1017.59
2022-10-09T00:13:30.552Z,1017.55
2022-10-09T00:16:38.888Z,1017.56
2022-10-09T00:19:46.283Z,1017.59
2022-10-09T00:22:53.993Z,1017.59
2022-10-09T00:26:01.362Z,1017.65
2022-10-09T00:29:08.787Z,1017.66
2022-10-09T00:32:16.794Z,1017.70
2022-10-09T00:35:24.138Z,1017.75
2022-10-09T00:38:31.935Z,1017.73
2022-10-09T00:41:40.146Z,1017.73
2022-10-09T00:44:48.517Z,1017.72
2022-10-09T00:47:56.235Z,1017.74
2022-10-09T00:51:04.098Z,1017.86
2022-10-09T00:54:12.487Z,1017.80
2022-10-09T00:57:19.929Z,1017.88
2022-10-09T01:00:28.339Z,1017.86
2022-10-09T01:03:36.120Z,1017.89
2022-10-09T01:06:43.896Z,1017.91
2022-10-09T01:09:52.507Z,1017.92
2022-10-09T01:12:59.924Z,1017.90
2022-10-09T01:16:08.325Z,1017.90
2022-10-09T01:19:16.376Z,1017.90
2022-10-09T01:22:24.202Z,1017.79
2022-10-09T01:25:32.653Z,1017.83
2022-10-09T01:28:39.993Z,1017.80
2022-10-09T01:31:48.152Z,1017.83
2022-10-09T01:34:56.083Z,1017.88
2022-10-09T01:38:03.969Z,1017.84
2022-10-09T01:41:12.411Z,1017.77
2022-10-09T01:44:20.328Z,1017.77
2022-10-09T01:47:28.016Z,1017.77
2022-10-09T01:50:35.880Z,1017.77
2022-10-09T01:53:43.747Z,1017.82
2022-10-09T01:56:51.643Z,1017.76
2022-10-09T02:00:00.059Z,1017.78
2022-10-09T02:03:08.037Z,1017.81
2022-10-09T02:06:15.665Z,1017.81
2022-10-09T02:09:23.599Z,1017.78
2022-10-09T02:12:31.708Z,1017.82
2022-10-09T02:15:40.085Z,1017.80
2022-10-09T02:18:47.478Z,1017.77
2022-10-09T02:21:55.713Z,1017.75
2022-10-09T02:25:04.581Z,1017.79
2022-10-09T02:28:12.031Z,1017.81
2022-10-09T02:31:20.322Z,1017.85
2022-10-09T02:34:27.720Z,1017.86
2022-10-09T02:37:35.809Z,1017.90
2022-10-09T02:40:44.091Z,1017.85
2022-10-09T02:43:51.465Z,1017.93
2022-10-09T02:47:00.024Z,1017.85
2022-10-09T02:50:07.388Z,1017.82
2022-10-09T02:53:15.961Z,1017.79
2022-10-09T02:56:24.215Z,1017.78
2022-10-09T02:59:31.705Z,1017.79
2022-10-09T03:02:40.262Z,1017.80
2022-10-09T03:05:48.108Z,1017.77
2022-10-09T03:08:55.957Z,1017.83
2022-10-09T03:12:04.377Z,1017.81
2022-10-09T03:15:11.724Z,1017.79
2022-10-09T03:18:20.108Z,1017.87
2022-10-09T03:21:28.294Z,1017.87
2022-10-09T03:24:35.673Z,1017.86
2022-10-09T03:27:44.040Z,1017.85
2022-10-09T03:30:51.888Z,1017.85
2022-10-09T03:33:59.846Z,1017.92
2022-10-09T03:37:08.229Z,1017.91
2022-10-09T03:40:15.452Z,1017.97
2022-10-09T03:43:23.642Z,1017.99
2022-10-09T03:46:31.317Z,1018.02
2022-10-09T03:49:39.081Z,1018.11
2022-10-09T03:52:47.632Z,1018.12
2022-10-09T03:55:55.094Z,1018.16
2022-10-09T03:59:03.299Z,1018.07
2022-10-09T04:02:11.320Z,1018.17
2022-10-09T04:05:19.037Z,1018.19
2022-10-09T04:08:27.276Z,1018.27
2022-10-09T04:11:35.246Z,1018.27
2022-10-09T04:14:43.052Z,1018.31
2022-10-09T04:17:51.419Z,1018.30
2022-10-09T04:20:58.898Z,1018.35
2022-10-09T04:24:07.234Z,1018.39
2022-10-09T04:27:15.039Z,1018.37
2022-10-09T04:30:22.891Z,1018.41
2022-10-09T04:33:31.199Z,1018.42
2022-10-09T04:36:38.549Z,1018.35
2022-10-09T04:39:46.630Z,1018.36
2022-10-09T04:42:54.280Z,1018.32
2022-10-09T04:46:02.168Z,1018.32
2022-10-09T04:49:11.342Z,1018.31
2022-10-09T04:52:19.112Z,1018.36
2022-10-09T04:55:26.962Z,1018.29
2022-10-09T04:58:34.770Z,1018.27
2022-10-09T05:01:42.684Z,1018.33
2022-10-09T05:04:51.182Z,1018.38
2022-10-09T05:07:58.902Z,1018.37
2022-10-09T05:11:06.495Z,1018.33
2022-10-09T05:14:14.344Z,1018.31
2022-10-09T05:17:23.685Z,1018.43
2022-10-09T05:20:32.125Z,1018.39
2022-10-09T05:23:40.035Z,1018.48
2022-10-09T05:26:47.838Z,1018.46
2022-10-09T05:29:55.788Z,1018.48
2022-10-09T05:33:04.241Z,1018.49
2022-10-09T05:36:12.237Z,1018.50
2022-10-09T05:39:20.237Z,1018.49
2022-10-09T05:42:27.901Z,1018.52
2022-10-09T05:45:36.130Z,1018.56
2022-10-09T05:48:43.855Z,1018.53
2022-10-09T05:51:51.590Z,1018.53
2022-10-09T05:54:59.309Z,1018.50
2022-10-09T05:58:07.518Z,1018.46
2022-10-09T06:01:15.079Z,1018.43
2022-10-09T06:04:22.791Z,1018.45
2022-10-09T06:07:30.488Z,1018.43
2022-10-09T06:10:38.209Z,1018.39
2022-10-09T06:13:46.369Z,1018.42
2022-10-09T06:16:54.220Z,1018.47
2022-10-09T06:20:02.002Z,1018.49
2022-10-09T06:23:10.101Z,1018.47
2022-10-09T06:26:18.006Z,1018.53
2022-10-09T06:29:25.736Z,1018.47
2022-10-09T06:32:33.557Z,1018.55
2022-10-09T06:35:41.198Z,1018.49
2022-10-09T06:38:49.226Z,1018.58
2022-10-09T06:41:56.959Z,1018.60
2022-10-09T06:45:04.596Z,1018.64
2022-10-09T06:48:12.516Z,1018.60
2022-10-09T06:51:19.708Z,1018.57
2022-10-09T06:54:27.766Z,1018.61
2022-10-09T06:57:35.447Z,1018.67
2022-10-09T07:00:43.481Z,1018.74
2022-10-09T07:03:50.659Z,1018.76
2022-10-09T07:06:58.735Z,1018.80
2022-10-09T07:10:09.159Z,1018.82
2022-10-09T07:13:16.360Z,1018.81
2022-10-09T07:16:24.631Z,1018.78
2022-10-09T07:19:32.540Z,1018.84
2022-10-09T07:22:39.825Z,1018.84
2022-10-09T07:25:50.007Z,1018.86
2022-10-09T07:28:57.431Z,1018.85
2022-10-09T07:32:10.194Z,1018.81
2022-10-09T07:35:07.652Z,1018.83
2022-10-09T07:38:15.235Z,1018.88
2022-10-09T07:41:22.761Z,1018.87
2022-10-09T07:44:30.825Z,1018.87
2022-10-09T07:47:38.235Z,1018.89
2022-10-09T07:50:45.443Z,1018.90
2022-10-09T07:53:53.145Z,1018.90
2022-10-09T07:57:00.760Z,1018.89
2022-10-09T08:00:08.236Z,1018.88
2022-10-09T08:03:15.806Z,1018.91
2022-10-09T08:06:23.429Z,1018.92
2022-10-09T08:09:31.299Z,1018.93
2022-10-09T08:12:38.457Z,1018.91
2022-10-09T08:15:45.717Z,1018.88
2022-10-09T08:18:53.181Z,1018.94
2022-10-09T08:22:03.400Z,1018.96
2022-10-09T08:25:11.205Z,1018.94
2022-10-09T08:28:18.721Z,1018.87
2022-10-09T08:31:26.405Z,1018.86
2022-10-09T08:34:33.904Z,1018.93
2022-10-09T08:37:41.394Z,1018.93
2022-10-09T08:40:49.254Z,1018.84
2022-10-09T08:43:53.785Z,1018.93
2022-10-09T08:47:01.477Z,1018.88
2022-10-09T08:50:09.367Z,1018.81
2022-10-09T08:53:16.652Z,1018.85
2022-10-09T08:56:24.688Z,1018.78
2022-10-09T08:59:32.500Z,1018.77
2022-10-09T09:02:40.418Z,1018.82
2022-10-09T09:05:48.611Z,1018.75
2022-10-09T09:08:56.122Z,1018.77
2022-10-09T09:12:03.683Z,1018.73
2022-10-09T09:15:11.708Z,1018.68
2022-10-09T09:18:19.436Z,1018.72
2022-10-09T09:21:27.114Z,1018.74
2022-10-09T09:24:35.165Z,1018.63
2022-10-09T09:27:42.756Z,1018.69
2022-10-09T09:30:50.225Z,1018.68
2022-10-09T09:33:58.340Z,1018.62
2022-10-09T09:37:05.757Z,1018.59
2022-10-09T09:43:18.499Z,1018.46
2022-10-09T09:46:25.706Z,1018.47
2022-10-09T09:49:33.695Z,1018.47
2022-10-09T09:52:40.931Z,1018.40
2022-10-09T09:55:48.619Z,1018.41
2022-10-09T09:58:56.135Z,1018.35
2022-10-09T10:02:03.785Z,1018.31
2022-10-09T10:05:12.124Z,1018.29
2022-10-09T10:08:19.817Z,1018.21
2022-10-09T10:11:27.437Z,1018.22
2022-10-09T10:14:35.392Z,1018.15
2022-10-09T10:17:42.618Z,1018.12
2022-10-09T10:20:50.667Z,1018.09
2022-10-09T10:23:58.452Z,1018.04
2022-10-09T10:27:05.588Z,1018.06
2022-10-09T10:30:13.071Z,1017.95
2022-10-09T10:33:20.610Z,1017.92
2022-10-09T10:36:28.202Z,1017.86
2022-10-09T10:39:35.831Z,1017.91
2022-10-09T10:42:43.132Z,1017.85
2022-10-09T10:45:51.172Z,1017.80
2022-10-09T10:48:58.774Z,1017.74
2022-10-09T10:52:06.224Z,1017.69
2022-10-09T10:55:14.106Z,1017.72
2022-10-09T11:01:29.639Z,1017.64
2022-10-09T11:04:37.013Z,1017.56
2022-10-09T11:07:44.559Z,1017.57
2022-10-09T11:10:51.638Z,1017.53
2022-10-09T11:13:59.341Z,1017.51
2022-10-09T11:17:07.173Z,1017.53
2022-10-09T11:20:14.734Z,1017.42
2022-10-09T11:23:22.504Z,1017.40
2022-10-09T11:26:30.694Z,1017.31
2022-10-09T11:29:38.144Z,1017.35
2022-10-09T11:32:45.747Z,1017.23
2022-10-09T11:35:53.777Z,1017.17
2022-10-09T11:39:01.357Z,1017.10
2022-10-09T11:42:08.794Z,1017.15
2022-10-09T11:45:16.675Z,1017.04
2022-10-09T11:48:23.789Z,1017.04
2022-10-09T11:51:31.564Z,1016.95
2022-10-09T11:54:39.553Z,1016.92
2022-10-09T11:57:46.935Z,1016.86
2022-10-09T12:00:54.892Z,1016.79
2022-10-09T12:04:02.781Z,1016.75
2022-10-09T12:07:10.364Z,1016.68
2022-10-09T12:10:18.156Z,1016.54
2022-10-09T12:13:25.664Z,1016.56
2022-10-09T12:16:33.325Z,1016.48
2022-10-09T12:19:41.380Z,1016.41
2022-10-09T12:23:07.321Z,1016.29
2022-10-09T12:25:53.920Z,1016.29
2022-10-09T12:29:01.641Z,1016.19
2022-10-09T12:32:09.742Z,1016.10
2022-10-09T12:35:17.342Z,1016.08
2022-10-09T12:38:25.021Z,1016.08
2022-10-09T12:41:32.584Z,1016.01
2022-10-09T12:44:40.113Z,1016.02
2022-10-09T12:47:47.554Z,1015.94
2022-10-09T12:50:55.127Z,1015.87
2022-10-09T12:54:02.627Z,1015.82
2022-10-09T12:57:10.110Z,1015.79
2022-10-09T13:00:17.604Z,1015.80
2022-10-09T13:03:24.741Z,1015.79
2022-10-09T13:06:32.583Z,1015.70
2022-10-09T13:09:40.482Z,1015.60
2022-10-09T13:12:47.921Z,1015.61
2022-10-09T13:15:56.056Z,1015.58
2022-10-09T13:19:03.895Z,1015.55
2022-10-09T13:22:11.177Z,1015.54
2022-10-09T13:25:19.047Z,1015.46
2022-10-09T13:28:26.779Z,1015.47
2022-10-09T13:31:34.499Z,1015.46
2022-10-09T13:34:42.679Z,1015.37
2022-10-09T13:37:50.224Z,1015.37
2022-10-09T13:40:58.549Z,1015.31
2022-10-09T13:44:06.623Z,1015.28
2022-10-09T13:47:14.044Z,1015.22
2022-10-09T13:50:22.065Z,1015.24
2022-10-09T13:53:29.878Z,1015.23
2022-10-09T13:56:37.634Z,1015.24
2022-10-09T13:59:45.440Z,1015.25
2022-10-09T14:02:53.119Z,1015.16
2022-10-09T14:06:01.126Z,1015.12
2022-10-09T14:09:08.641Z,1015.02
2022-10-09T14:12:16.382Z,1015.05
2022-10-09T14:15:24.181Z,1015.02
2022-10-09T14:18:31.517Z,1014.98
2022-10-09T14:21:39.902Z,1014.92
2022-10-09T14:24:47.816Z,1014.85
2022-10-09T14:27:55.227Z,1014.84
2022-10-09T14:31:03.477Z,1014.82
2022-10-09T14:34:11.269Z,1014.74
2022-10-09T14:37:36.854Z,1014.69
2022-10-09T14:40:23.998Z,1014.68
2022-10-09T14:43:32.284Z,1014.66
2022-10-09T14:46:39.764Z,1014.56
2022-10-09T14:49:48.364Z,1014.48
2022-10-09T14:52:55.755Z,1014.43
2022-10-09T14:56:04.098Z,1014.46
2022-10-09T14:59:12.222Z,1014.31
2022-10-09T15:02:19.729Z,1014.31
2022-10-09T15:05:27.755Z,1014.25
2022-10-09T15:08:35.792Z,1014.30
2022-10-09T15:11:43.069Z,1014.27
2022-10-09T15:14:51.172Z,1014.26
2022-10-09T15:17:59.475Z,1014.18
2022-10-09T15:21:06.935Z,1014.21
2022-10-09T15:24:14.867Z,1014.22
2022-10-09T15:27:22.421Z,1014.23
2022-10-09T15:30:30.138Z,1014.20
2022-10-09T15:33:38.263Z,1014.12
2022-10-09T15:36:46.013Z,1014.16
2022-10-09T15:39:53.811Z,1014.07
2022-10-09T15:43:02.056Z,1013.95
2022-10-09T15:46:10.565Z,1014.02
2022-10-09T15:49:18.837Z,1013.93
2022-10-09T15:52:27.526Z,1013.87
2022-10-09T15:55:35.666Z,1013.94
2022-10-09T15:58:43.982Z,1013.95
2022-10-09T16:01:52.224Z,1013.92
2022-10-09T16:05:00.292Z,1013.92
2022-10-09T16:08:08.149Z,1013.91
2022-10-09T16:11:17.074Z,1013.94
2022-10-09T16:14:16.331Z,1013.94
2022-10-09T16:17:23.800Z,1013.84
2022-10-09T16:20:31.652Z,1013.89
2022-10-09T16:23:39.652Z,1013.86
2022-10-09T16:26:47.092Z,1013.84
2022-10-09T16:29:55.295Z,1013.75
2022-10-09T16:33:03.334Z,1013.75
2022-10-09T16:36:12.543Z,1013.79
2022-10-09T16:39:20.353Z,1013.86
2022-10-09T16:42:28.448Z,1013.84
2022-10-09T16:45:35.710Z,1013.75
2022-10-09T16:48:44.078Z,1013.85
2022-10-09T16:51:52.231Z,1013.81
2022-10-09T16:55:00.588Z,1013.85
2022-10-09T16:58:09.008Z,1013.82
2022-10-09T17:01:16.443Z,1013.89
2022-10-09T17:04:24.173Z,1013.84
2022-10-09T17:07:32.184Z,1013.85
2022-10-09T17:10:40.075Z,1013.83
2022-10-09T17:13:47.868Z,1013.78
2022-10-09T17:16:56.005Z,1013.79
2022-10-09T17:20:04.311Z,1013.78
2022-10-09T17:23:11.758Z,1013.77
2022-10-09T17:26:19.228Z,1013.79
2022-10-09T17:29:27.619Z,1013.78
2022-10-09T17:32:35.523Z,1013.78
2022-10-09T17:35:43.193Z,1013.79
2022-10-09T17:38:50.771Z,1013.80
2022-10-09T17:41:58.705Z,1013.79
2022-10-09T17:45:06.703Z,1013.75
2022-10-09T17:48:15.113Z,1013.77
2022-10-09T17:51:22.544Z,1013.79
2022-10-09T17:54:30.666Z,1013.76
2022-10-09T17:57:38.866Z,1013.72
2022-10-09T18:00:46.255Z,1013.75
2022-10-09T18:03:54.196Z,1013.75
2022-10-09T18:07:02.037Z,1013.74
2022-10-09T18:10:09.363Z,1013.73
2022-10-09T18:13:17.461Z,1013.76
2022-10-09T18:16:25.610Z,1013.69
2022-10-09T18:19:32.901Z,1013.68
2022-10-09T18:22:40.896Z,1013.67
2022-10-09T18:25:48.622Z,1013.64
2022-10-09T18:28:56.234Z,1013.59
2022-10-09T18:32:04.368Z,1013.53
2022-10-09T18:35:12.295Z,1013.53
2022-10-09T18:38:19.657Z,1013.44
2022-10-09T18:41:29.820Z,1013.44
2022-10-09T18:44:38.330Z,1013.38
2022-10-09T18:47:45.756Z,1013.29
2022-10-09T18:50:53.359Z,1013.34
2022-10-09T18:54:01.591Z,1013.40
2022-10-09T18:57:09.350Z,1013.40
2022-10-09T19:00:16.962Z,1013.42
2022-10-09T19:03:24.750Z,1013.40
2022-10-09T19:06:32.432Z,1013.38
2022-10-09T19:09:39.892Z,1013.34
2022-10-09T19:12:47.542Z,1013.29
2022-10-09T19:15:55.614Z,1013.34
2022-10-09T19:19:03.355Z,1013.31
2022-10-09T19:22:15.254Z,1013.25
2022-10-09T19:25:13.566Z,1013.19
2022-10-09T19:28:21.681Z,1013.21
2022-10-09T19:31:29.387Z,1013.16
2022-10-09T19:34:36.767Z,1013.18
2022-10-09T19:37:45.188Z,1013.17
2022-10-09T19:40:52.899Z,1013.16
2022-10-09T19:44:00.598Z,1013.10
2022-10-09T19:47:08.739Z,1013.03
2022-10-09T19:50:16.126Z,1013.10
2022-10-09T19:53:23.842Z,1013.01
2022-10-09T19:56:32.179Z,1012.99
2022-10-09T19:59:39.663Z,1012.96
2022-10-09T20:02:47.861Z,1012.94
2022-10-09T20:05:56.131Z,1012.90
2022-10-09T20:09:03.753Z,1012.88
2022-10-09T20:12:11.635Z,1012.93
2022-10-09T20:15:19.307Z,1012.88
2022-10-09T20:18:26.956Z,1012.84
2022-10-09T20:21:34.757Z,1012.86
2022-10-09T20:24:42.570Z,1012.88
2022-10-09T20:27:50.386Z,1012.78
2022-10-09T20:30:58.254Z,1012.78
2022-10-09T20:34:05.990Z,1012.75
2022-10-09T20:37:13.880Z,1012.69
2022-10-09T20:40:22.078Z,1012.61
2022-10-09T20:43:29.791Z,1012.56
2022-10-09T20:46:37.446Z,1012.52
2022-10-09T20:49:44.822Z,1012.49
2022-10-09T20:52:53.101Z,1012.43
2022-10-09T20:56:00.715Z,1012.40
2022-10-09T20:59:08.411Z,1012.36
2022-10-09T21:02:16.606Z,1012.30
2022-10-09T21:05:23.897Z,1012.30
2022-10-09T21:08:31.568Z,1012.21
2022-10-09T21:11:39.738Z,1012.18
2022-10-09T21:14:47.317Z,1012.10
2022-10-09T21:17:54.934Z,1012.04
2022-10-09T21:21:03.241Z,1012.02
2022-10-09T21:24:10.556Z,1012.04
2022-10-09T21:27:18.492Z,1011.98
2022-10-09T21:30:26.471Z,1011.88
2022-10-09T21:33:33.781Z,1011.91
2022-10-09T21:36:56.215Z,1011.85
2022-10-09T21:39:46.713Z,1011.80
2022-10-09T21:42:54.096Z,1011.78
2022-10-09T21:46:02.063Z,1011.74
2022-10-09T21:49:09.262Z,1011.80
2022-10-09T21:52:16.997Z,1011.80
2022-10-09T21:55:25.015Z,1011.78
2022-10-09T21:58:32.352Z,1011.78
2022-10-09T22:01:40.438Z,1011.70
2022-10-09T22:04:48.602Z,1011.73
2022-10-09T22:07:55.947Z,1011.65
2022-10-09T22:11:04.046Z,1011.65
2022-10-09T22:14:11.938Z,1011.68
2022-10-09T22:17:19.764Z,1011.70
2022-10-09T22:20:27.482Z,1011.69
2022-10-09T22:23:35.062Z,1011.65
2022-10-09T22:26:42.700Z,1011.58
2022-10-09T22:29:50.479Z,1011.57
2022-10-09T22:32:57.794Z,1011.60
2022-10-09T22:36:06.030Z,1011.50
2022-10-09T22:39:13.803Z,1011.56
2022-10-09T22:42:21.132Z,1011.50
2022-10-09T22:45:28.997Z,1011.46
2022-10-09T22:48:36.194Z,1011.45
2022-10-09T22:51:44.367Z,1011.43
2022-10-09T22:54:52.125Z,1011.38
2022-10-09T22:57:59.834Z,1011.39
2022-10-09T23:01:08.496Z,1011.33
2022-10-09T23:04:16.740Z,1011.33
2022-10-09T23:07:23.990Z,1011.34
2022-10-09T23:10:31.790Z,1011.25
2022-10-09T23:13:39.109Z,1011.18
2022-10-09T23:16:46.994Z,1011.18
2022-10-09T23:19:55.029Z,1011.15
2022-10-09T23:23:02.333Z,1011.12
2022-10-09T23:26:10.574Z,1011.02
2022-10-09T23:29:18.189Z,1011.07
2022-10-09T23:32:25.373Z,1011.10
2022-10-09T23:35:33.445Z,1011.06
2022-10-09T23:38:40.966Z,1011.05
2022-10-09T23:41:48.775Z,1010.93
2022-10-09T23:44:56.815Z,1010.92
2022-10-09T23:48:04.145Z,1010.96
2022-10-09T23:51:11.716Z,1010.93
2022-10-09T23:54:19.577Z,1010.97
2022-10-09T23:57:26.788Z,1010.88
